Time;durP1;ratioP1;P1;durP2;ratioP2;P2;SDS_P1;SDS_P2;PMS_P1;PMS_P2;Temp;Humidity;BMP_temperature;BMP_pressure;BME280_temperature;BME280_humidity;BME280_pressure;Samples;Min_cycle;Max_cycle;Signal;HPM_P1;HPM_P2
2023/01/16 00:01:29;;;;;;;3.45;1.70;;;;;;;9.44;67.84;95374.47;5026191;28;20069;-49
2023/01/16 00:03:57;;;;;;;3.72;1.85;;;;;;;9.68;68.13;95368.38;5026518;28;20084;-54
2023/01/16 00:06:26;;;;;;;3.78;1.50;;;;;;;9.51;69.73;95363.09;5030840;28;20505;-51
2023/01/16 00:08:54;;;;;;;1.83;1.30;;;;;;;9.90;66.85;95361.59;5029636;28;20073;-51
2023/01/16 00:11:24;;;;;;;2.03;1.65;;;;;;;10.02;64.99;95343.63;5030951;28;20111;-47
2023/01/16 00:13:53;;;;;;;3.27;2.33;;;;;;;9.98;64.79;95346.59;5020988;28;20084;-52
2023/01/16 00:16:21;;;;;;;2.00;1.77;;;;;;;9.53;66.99;95344.50;5023479;28;20491;-49
2023/01/16 00:18:50;;;;;;;6.70;1.80;;;;;;;9.75;65.80;95340.41;5026852;28;20064;-53
2023/01/16 00:21:19;;;;;;;1.95;1.30;;;;;;;9.98;64.37;95338.69;5025990;28;20069;-53
2023/01/16 00:23:48;;;;;;;2.15;1.48;;;;;;;9.72;64.78;95341.53;5028292;28;20466;-54
2023/01/16 00:26:16;;;;;;;2.17;1.48;;;;;;;9.92;65.05;95335.91;5025892;28;20064;-51
2023/01/16 00:28:46;;;;;;;1.80;1.58;;;;;;;9.90;65.19;95341.34;5025149;28;20080;-52
2023/01/16 00:31:14;;;;;;;3.20;1.70;;;;;;;9.89;64.80;95334.44;5031957;28;20164;-48
2023/01/16 00:33:43;;;;;;;2.67;2.03;;;;;;;9.84;65.94;95342.03;5025617;28;20096;-53
2023/01/16 00:36:12;;;;;;;1.60;1.40;;;;;;;9.80;68.12;95335.44;5028237;28;20084;-51
2023/01/16 00:38:40;;;;;;;2.25;1.40;;;;;;;9.36;69.21;95332.34;5030464;28;20081;-46
2023/01/16 00:41:09;;;;;;;3.22;1.60;;;;;;;9.85;67.72;95327.06;5032247;28;20092;-47
2023/01/16 00:43:37;;;;;;;1.73;1.30;;;;;;;9.08;76.97;95323.97;5025069;28;20089;-56
2023/01/16 00:46:07;;;;;;;2.05;1.70;;;;;;;9.48;74.27;95317.88;5027429;28;20042;-55
2023/01/16 00:48:35;;;;;;;1.60;1.50;;;;;;;9.57;73.99;95316.91;5031697;28;20088;-47
2023/01/16 00:51:04;;;;;;;2.80;1.33;;;;;;;9.62;74.17;95306.69;5029353;28;20088;-46
2023/01/16 00:53:32;;;;;;;3.13;2.05;;;;;;;9.07;76.40;95312.63;5026002;28;20077;-51
2023/01/16 00:56:00;;;;;;;2.60;1.95;;;;;;;9.17;76.69;95312.47;5020748;28;20119;-51
2023/01/16 00:58:29;;;;;;;2.88;1.80;;;;;;;8.56;83.79;95306.63;5026266;28;20513;-51
2023/01/16 01:00:57;;;;;;;3.20;1.70;;;;;;;9.16;78.51;95295.88;5025444;28;20092;-54
2023/01/16 01:03:27;;;;;;;2.50;2.00;;;;;;;8.96;76.34;95303.25;5027838;28;20080;-50
2023/01/16 01:05:56;;;;;;;2.30;2.15;;;;;;;9.10;76.00;95291.25;5025305;28;20529;-49
2023/01/16 01:08:24;;;;;;;1.77;1.55;;;;;;;9.48;73.33;95284.50;5022556;28;20115;-47
2023/01/16 01:10:52;;;;;;;3.28;2.17;;;;;;;9.24;76.11;95285.34;5025650;28;20533;-51
2023/01/16 01:13:21;;;;;;;1.73;1.63;;;;;;;9.29;78.36;95274.34;5027007;28;20102;-53
2023/01/16 01:15:49;;;;;;;3.78;2.38;;;;;;;8.91;82.16;95270.53;5030911;28;20093;-48
2023/01/16 01:18:18;;;;;;;2.65;1.90;;;;;;;8.77;80.55;95275.47;5024604;28;20148;-50
2023/01/16 01:20:48;;;;;;;3.45;1.80;;;;;;;8.99;80.47;95266.13;5028211;28;20065;-50
2023/01/16 01:23:16;;;;;;;;;;;;;;;8.72;83.13;95269.06;5029567;28;20078;-50
2023/01/16 01:25:44;;;;;;;2.13;2.03;;;;;;;8.84;82.03;95262.47;5024695;28;19964;-49
2023/01/16 01:28:13;;;;;;;2.20;2.00;;;;;;;8.86;82.39;95259.69;5024394;28;20092;-53
2023/01/16 01:30:41;;;;;;;2.45;2.25;;;;;;;9.00;82.14;95254.59;5021724;28;20096;-46
2023/01/16 01:33:09;;;;;;;2.40;2.20;;;;;;;9.02;84.11;95249.19;5018965;28;20081;-49
2023/01/16 01:35:38;;;;;;;2.42;2.22;;;;;;;9.11;80.97;95248.19;5026484;28;20084;-47
2023/01/16 01:38:08;;;;;;;3.10;2.08;;;;;;;9.00;84.65;95238.84;5030445;28;20494;-51
2023/01/16 01:40:36;;;;;;;2.43;1.80;;;;;;;8.97;85.95;95238.34;5025135;28;20081;-49
2023/01/16 01:43:11;;;;;;;2.20;1.98;;;;;;;8.42;93.46;95231.06;5026561;28;20073;-48
2023/01/16 01:45:40;;;;;;;2.40;2.10;;;;;;;8.43;90.22;95236.19;5023291;28;20095;-54
2023/01/16 01:48:20;;;;;;;4.05;2.20;;;;;;;8.55;88.28;95226.97;5032470;28;20069;-51
2023/01/16 01:50:51;;;;;;;2.10;1.90;;;;;;;8.29;90.42;95229.72;5023125;28;20073;-53
2023/01/16 01:53:25;;;;;;;2.10;1.70;;;;;;;8.85;84.91;95221.28;5022099;28;20564;-45
2023/01/16 01:55:55;;;;;;;2.90;1.92;;;;;;;8.88;84.43;95216.50;5026735;28;20479;-51
2023/01/16 01:58:25;;;;;;;2.45;2.20;;;;;;;8.11;89.86;95220.31;5021614;28;20541;-54
2023/01/16 02:00:55;;;;;;;2.00;1.90;;;;;;;8.96;85.14;95205.16;5026229;28;20132;-51
2023/01/16 02:03:26;;;;;;;4.63;2.20;;;;;;;8.94;83.03;95202.69;5026803;28;20521;-50
2023/01/16 02:05:57;;;;;;;2.80;1.67;;;;;;;8.91;80.92;95196.94;5026239;28;20124;-53
2023/01/16 02:08:31;;;;;;;2.60;2.10;;;;;;;8.99;80.73;95183.78;5026919;28;20119;-47
2023/01/16 02:11:03;;;;;;;2.25;2.05;;;;;;;8.83;80.10;95184.63;5025413;28;20537;-54
2023/01/16 02:13:31;;;;;;;3.88;2.00;;;;;;;8.74;81.31;95181.19;5027808;28;20084;-45
2023/01/16 02:22:13;;;;;;;1.80;1.67;;;;;;;9.17;78.88;95154.66;5026047;28;20081;-54
2023/01/16 02:24:59;;;;;;;1.90;1.80;;;;;;;8.98;75.91;95154.06;5030829;28;20084;-52
2023/01/16 02:27:43;;;;;;;2.08;1.88;;;;;;;9.10;76.81;95158.97;5025580;28;20107;-49
2023/01/16 02:30:54;;;;;;;2.08;1.88;;;;;;;9.31;76.12;95142.63;5027950;28;20359;-52
2023/01/16 02:33:29;;;;;;;2.22;1.98;;;;;;;8.44;81.59;95148.50;5023388;28;20073;-56
2023/01/16 02:36:03;;;;;;;2.15;1.70;;;;;;;9.22;76.86;95137.41;5027372;28;20085;-55
2023/01/16 02:38:39;;;;;;;2.15;1.77;;;;;;;9.20;77.87;95138.56;5025851;28;20559;-49
2023/01/16 02:41:15;;;;;;;2.10;1.90;;;;;;;9.34;76.30;95126.50;5025958;28;20085;-55
2023/01/16 02:43:48;;;;;;;2.03;1.83;;;;;;;9.23;79.10;95120.63;5026442;28;20089;-48
2023/01/16 02:46:23;;;;;;;1.90;1.80;;;;;;;9.14;76.56;95111.09;5029609;28;20092;-52
2023/01/16 02:48:59;;;;;;;2.05;1.90;;;;;;;9.12;78.60;95113.09;5030382;28;20095;-48
2023/01/16 02:51:33;;;;;;;1.83;1.73;;;;;;;9.35;76.23;95110.53;5032118;28;20084;-52
2023/01/16 02:54:10;;;;;;;1.90;1.80;;;;;;;9.21;76.24;95103.38;5022587;28;20073;-50
2023/01/16 02:56:42;;;;;;;2.25;1.80;;;;;;;9.18;78.04;95098.44;5029326;28;20482;-49
2023/01/16 02:59:12;;;;;;;2.35;1.90;;;;;;;9.34;75.16;95090.50;5029178;28;20092;-44
2023/01/16 03:01:41;;;;;;;2.15;1.90;;;;;;;8.74;79.37;95098.88;5025807;28;20108;-49
2023/01/16 03:04:39;;;;;;;3.03;2.00;;;;;;;8.52;86.23;95089.88;5022108;28;20081;-53
2023/01/16 03:07:19;;;;;;;1.98;1.88;;;;;;;8.45;82.55;95081.03;5029222;28;20091;-52
2023/01/16 03:09:50;;;;;;;2.30;2.10;;;;;;;8.49;85.79;95083.13;5028954;28;20492;-56
2023/01/16 03:12:28;;;;;;;1.60;1.50;;;;;;;8.80;85.66;95075.38;5024391;28;20077;-51
2023/01/16 03:15:04;;;;;;;1.65;1.50;;;;;;;8.29;86.55;95074.78;5027532;28;20045;-51
2023/01/16 03:17:48;;;;;;;2.40;1.90;;;;;;;8.56;87.43;95068.34;5028887;28;20085;-55
2023/01/16 03:20:25;;;;;;;1.70;1.50;;;;;;;8.25;89.59;95067.38;5026412;28;20081;-51
2023/01/16 03:23:01;;;;;;;1.50;1.40;;;;;;;8.03;99.19;95060.97;5023435;28;20076;-46
2023/01/16 03:25:35;;;;;;;1.80;1.70;;;;;;;8.26;95.58;95051.47;5024494;28;20085;-54
2023/01/16 03:28:09;;;;;;;1.83;1.73;;;;;;;7.51;100.00;95053.34;5022715;28;20073;-51
2023/01/16 03:30:46;;;;;;;2.45;1.90;;;;;;;8.45;95.73;95037.19;5026139;28;20546;-51
2023/01/16 03:33:22;;;;;;;1.95;1.75;;;;;;;8.19;94.57;95032.09;5031235;28;20069;-52
2023/01/16 03:35:53;;;;;;;1.60;1.50;;;;;;;8.31;90.29;95020.25;5028791;28;20085;-52
2023/01/16 03:38:22;;;;;;;2.00;1.83;;;;;;;8.22;94.00;95017.78;5033849;28;20477;-47
2023/01/16 03:40:51;;;;;;;1.85;1.50;;;;;;;8.19;95.64;95005.84;5029468;28;20116;-48
2023/01/16 03:43:23;;;;;;;1.85;1.75;;;;;;;8.09;92.98;94999.94;5021000;28;20556;-49
2023/01/16 03:45:54;;;;;;;1.67;1.58;;;;;;;8.36;90.11;94982.97;5026378;28;20081;-55
2023/01/16 03:48:29;;;;;;;1.98;1.88;;;;;;;8.03;91.20;94990.09;5023232;28;20422;-58
2023/01/16 03:51:00;;;;;;;1.88;1.75;;;;;;;8.17;91.36;94978.09;5024327;28;20085;-49
2023/01/16 03:53:31;;;;;;;2.13;1.60;;;;;;;8.34;84.56;94969.22;5022660;28;20069;-48
2023/01/16 03:56:02;;;;;;;2.55;1.80;;;;;;;8.71;83.19;94966.03;5022340;28;20673;-52
2023/01/16 03:58:49;;;;;;;1.90;1.70;;;;;;;8.38;82.89;94959.22;5027159;28;20076;-55
2023/01/16 04:01:23;;;;;;;2.60;1.70;;;;;;;8.54;83.06;94959.19;5027610;28;20084;-54
2023/01/16 04:03:59;;;;;;;1.90;1.60;;;;;;;8.78;81.89;94947.78;5026849;28;20081;-47
2023/01/16 04:06:33;;;;;;;2.33;1.80;;;;;;;8.26;90.93;94943.78;5021432;28;20084;-49
2023/01/16 04:09:02;;;;;;;1.70;1.60;;;;;;;8.29;90.14;94950.50;5022419;28;20085;-49
2023/01/16 04:11:32;;;;;;;1.77;1.65;;;;;;;8.45;87.70;94937.34;5024551;28;20076;-53
2023/01/16 04:14:02;;;;;;;3.00;1.70;;;;;;;7.99;90.29;94952.03;5026098;28;20506;-48
2023/01/16 04:16:30;;;;;;;1.90;1.80;;;;;;;8.16;93.85;94942.34;5025380;28;20620;-48
2023/01/16 04:19:00;;;;;;;1.88;1.70;;;;;;;8.21;90.96;94940.03;5027121;28;20073;-51
2023/01/16 04:21:31;;;;;;;2.10;1.80;;;;;;;7.99;98.11;94923.16;5024613;28;20085;-54
2023/01/16 04:24:01;;;;;;;2.45;1.88;;;;;;;7.66;99.91;94919.75;5027150;28;20080;-51
2023/01/16 04:26:29;;;;;;;5.47;1.90;;;;;;;8.06;98.00;94905.75;5029390;28;20085;-51
2023/01/16 04:28:57;;;;;;;1.67;1.58;;;;;;;7.97;97.67;94904.13;5033510;28;20088;-58
2023/01/16 04:31:28;;;;;;;1.73;1.63;;;;;;;8.03;96.82;94893.78;5029219;28;20081;-47
2023/01/16 04:33:56;;;;;;;1.60;1.50;;;;;;;7.81;97.60;94882.19;5028817;28;20530;-49
2023/01/16 04:36:25;;;;;;;1.80;1.70;;;;;;;8.12;96.17;94873.59;5026974;28;20080;-45
2023/01/16 04:38:54;;;;;;;2.10;2.00;;;;;;;8.01;95.84;94872.13;5022638;28;20548;-51
2023/01/16 04:41:36;;;;;;;1.60;1.50;;;;;;;7.93;95.44;94858.22;5035352;28;20093;-53
2023/01/16 04:44:06;;;;;;;2.00;1.90;;;;;;;7.91;96.62;94855.75;5027652;28;20080;-48
2023/01/16 04:46:34;;;;;;;1.97;1.83;;;;;;;7.73;100.00;94834.16;5023615;28;20073;-50
2023/01/16 04:49:02;;;;;;;1.98;1.88;;;;;;;7.83;98.40;94830.34;5028294;28;20084;-58
2023/01/16 04:51:32;;;;;;;2.05;1.95;;;;;;;7.81;100.00;94828.88;5027821;28;20085;-49
2023/01/16 04:54:00;;;;;;;4.10;1.83;;;;;;;7.77;100.00;94835.44;5026136;28;20088;-49
2023/01/16 04:56:28;;;;;;;1.95;1.85;;;;;;;8.09;93.81;94821.44;5029562;28;20506;-47
2023/01/16 04:58:57;;;;;;;2.95;2.30;;;;;;;7.57;100.00;94830.59;5029356;28;20115;-51
2023/01/16 05:01:25;;;;;;;2.45;2.28;;;;;;;7.41;100.00;94825.34;5033334;28;20568;-50
2023/01/16 05:03:54;;;;;;;2.00;1.90;;;;;;;7.99;94.33;94816.38;5029786;28;20084;-45
2023/01/16 05:06:22;;;;;;;3.97;1.95;;;;;;;7.73;99.58;94813.97;5028516;28;20084;-50
2023/01/16 05:08:52;;;;;;;1.50;1.40;;;;;;;7.91;97.99;94808.50;5031348;28;20741;-47
2023/01/16 05:11:20;;;;;;;2.65;2.45;;;;;;;7.84;95.71;94811.00;5026379;28;20077;-60
2023/01/16 05:13:48;;;;;;;1.80;1.70;;;;;;;7.82;97.77;94806.91;5024347;28;20081;-49
2023/01/16 05:16:17;;;;;;;2.03;1.92;;;;;;;7.94;98.26;94795.06;5032196;28;20081;-50
2023/01/16 05:18:45;;;;;;;2.00;1.90;;;;;;;7.86;97.14;94789.84;5030991;28;20084;-44
2023/01/16 05:21:13;;;;;;;2.47;1.88;;;;;;;8.05;96.19;94783.34;5023137;28;20089;-52
2023/01/16 05:23:42;;;;;;;2.10;1.90;;;;;;;7.97;98.86;94780.78;5032007;28;20528;-52
2023/01/16 05:26:11;;;;;;;2.05;1.58;;;;;;;7.91;97.02;94782.25;5022681;28;20093;-49
2023/01/16 05:28:39;;;;;;;2.27;2.07;;;;;;;7.61;100.00;94783.84;5033708;28;20076;-55
2023/01/16 05:31:08;;;;;;;2.35;2.15;;;;;;;7.88;99.87;94756.38;5027862;28;20541;-55
2023/01/16 05:33:36;;;;;;;2.60;2.40;;;;;;;7.95;97.67;94754.72;5034765;28;20092;-52
2023/01/16 05:36:05;;;;;;;2.22;1.90;;;;;;;7.93;96.23;94755.88;5027369;28;20076;-50
2023/01/16 05:38:33;;;;;;;2.22;2.03;;;;;;;7.90;97.58;94757.03;5033933;28;20474;-49
2023/01/16 05:41:01;;;;;;;4.20;2.03;;;;;;;8.06;94.55;94753.53;5033837;28;20093;-46
2023/01/16 05:43:31;;;;;;;2.47;1.85;;;;;;;8.08;93.82;94751.53;5033441;28;20072;-47
2023/01/16 05:45:59;;;;;;;1.80;1.70;;;;;;;7.72;100.00;94740.69;5034701;28;20081;-54
2023/01/16 05:48:28;;;;;;;2.35;2.13;;;;;;;8.04;95.58;94737.09;5025986;28;20123;-49
2023/01/16 05:50:56;;;;;;;2.13;1.92;;;;;;;7.68;99.17;94727.09;5029640;28;20082;-49
2023/01/16 05:53:27;;;;;;;2.95;2.25;;;;;;;6.50;100.00;94729.34;5033662;28;20077;-51
2023/01/16 05:55:56;;;;;;;2.40;2.08;;;;;;;7.20;100.00;94712.31;5034443;28;20482;-52
2023/01/16 05:58:24;;;;;;;2.20;2.00;;;;;;;7.73;100.00;94709.03;5028577;28;20085;-48
2023/01/16 06:00:53;;;;;;;2.15;1.98;;;;;;;7.86;100.00;94705.88;5033190;28;20081;-51
2023/01/16 06:03:22;;;;;;;2.00;1.80;;;;;;;7.93;97.57;94698.13;5029878;28;20529;-53
2023/01/16 06:05:50;;;;;;;2.08;1.92;;;;;;;7.41;100.00;94707.34;5031959;28;20084;-51
2023/01/16 06:08:18;;;;;;;1.80;1.70;;;;;;;7.58;100.00;94697.63;5033042;28;20073;-45
2023/01/16 06:10:47;;;;;;;1.73;1.63;;;;;;;7.79;100.00;94695.25;5029258;28;20077;-49
2023/01/16 06:13:16;;;;;;;2.00;1.90;;;;;;;7.57;100.00;94690.72;5031749;28;20080;-48
2023/01/16 06:15:44;;;;;;;2.25;2.05;;;;;;;7.19;100.00;94694.94;5034761;28;20095;-52
2023/01/16 06:18:14;;;;;;;2.47;2.28;;;;;;;7.50;100.00;94689.78;5031129;28;20594;-51
2023/01/16 06:20:43;;;;;;;2.50;1.98;;;;;;;7.63;100.00;94681.38;5028956;28;20049;-50
2023/01/16 06:23:11;;;;;;;2.38;2.17;;;;;;;7.59;100.00;94678.28;5030908;28;20116;-48
2023/01/16 06:25:40;;;;;;;2.10;1.80;;;;;;;7.56;100.00;94668.13;5039299;28;20085;-48
2023/01/16 06:28:08;;;;;;;2.10;2.00;;;;;;;7.29;100.00;94658.88;5029797;28;20079;-53
2023/01/16 06:30:37;;;;;;;3.92;2.10;;;;;;;7.53;100.00;94650.09;5035644;28;20099;-53
2023/01/16 06:33:05;;;;;;;1.60;1.50;;;;;;;7.35;100.00;94645.09;5028041;28;20081;-46
2023/01/16 06:35:35;;;;;;;2.17;1.90;;;;;;;7.01;100.00;94637.50;5037138;28;20077;-47
2023/01/16 06:38:04;;;;;;;2.35;2.15;;;;;;;6.50;100.00;94634.28;5023668;28;20077;-46
2023/01/16 06:40:32;;;;;;;2.28;2.08;;;;;;;6.64;100.00;94612.66;5031391;28;20085;-54
2023/01/16 06:43:01;;;;;;;1.98;1.88;;;;;;;6.48;100.00;94612.69;5018598;28;20077;-57
2023/01/16 06:45:29;;;;;;;2.45;1.63;;;;;;;6.68;100.00;94610.56;5027408;28;20085;-51
2023/01/16 06:47:57;;;;;;;2.72;1.95;;;;;;;6.83;100.00;94601.03;5027876;28;20489;-54
2023/01/16 06:50:26;;;;;;;3.55;1.88;;;;;;;6.45;100.00;94605.19;5026383;28;20567;-48
2023/01/16 06:52:55;;;;;;;2.08;1.90;;;;;;;5.97;100.00;94591.91;5028029;28;20073;-51
2023/01/16 06:55:24;;;;;;;3.23;2.20;;;;;;;6.08;100.00;94583.75;5031016;28;20085;-57
2023/01/16 06:57:52;;;;;;;2.53;2.00;;;;;;;6.16;100.00;94577.72;5024939;28;20089;-51
2023/01/16 07:00:21;;;;;;;2.47;2.10;;;;;;;5.70;100.00;94575.50;5024613;28;20077;-52
2023/01/16 07:02:54;;;;;;;3.88;2.58;;;;;;;5.98;100.00;94559.53;5024264;28;20092;-46
2023/01/16 07:05:23;;;;;;;5.68;2.92;;;;;;;5.64;100.00;94552.63;5026913;28;20073;-49
2023/01/16 07:07:51;;;;;;;3.55;2.70;;;;;;;5.89;100.00;94544.81;5029694;28;20072;-48
2023/01/16 07:10:21;;;;;;;3.85;3.30;;;;;;;5.98;100.00;94537.78;5026207;28;20088;-49
2023/01/16 07:12:50;;;;;;;4.63;3.30;;;;;;;6.21;100.00;94540.56;5026425;28;20083;-44
2023/01/16 07:23:41;;;;;;;2.28;2.05;;;;;;;7.17;100.00;94505.59;5027876;28;20548;-54
2023/01/16 07:26:11;;;;;;;3.42;2.67;;;;;;;7.19;100.00;94503.59;5030817;28;20089;-50
2023/01/16 07:28:40;;;;;;;2.72;2.50;;;;;;;6.99;100.00;94503.22;5023831;28;20088;-45
2023/01/16 07:31:08;;;;;;;2.72;2.53;;;;;;;6.85;100.00;94496.91;5025402;28;20561;-53
2023/01/16 07:33:37;;;;;;;2.30;2.10;;;;;;;6.60;100.00;94489.09;5026082;28;20092;-52
2023/01/16 07:36:06;;;;;;;2.55;1.90;;;;;;;6.32;100.00;94485.25;5032521;28;20084;-51
2023/01/16 07:38:34;;;;;;;2.33;2.00;;;;;;;6.19;100.00;94483.16;5021807;28;20088;-46
2023/01/16 07:41:02;;;;;;;2.50;2.15;;;;;;;6.72;100.00;94470.44;5026505;28;20089;-48
2023/01/16 07:43:32;;;;;;;2.53;2.33;;;;;;;6.73;100.00;94457.16;5021742;28;20552;-48
2023/01/16 07:46:01;;;;;;;3.73;2.70;;;;;;;6.80;100.00;94459.91;5026488;28;20065;-48
2023/01/16 07:48:29;;;;;;;2.65;2.42;;;;;;;6.79;100.00;94450.41;5029913;28;20056;-54
2023/01/16 07:50:58;;;;;;;3.10;2.20;;;;;;;7.49;100.00;94446.88;5030054;28;20096;-53
2023/01/16 07:53:29;;;;;;;2.35;2.22;;;;;;;6.94;100.00;94437.41;5025708;28;23165;-46
2023/01/16 07:55:58;;;;;;;6.35;2.40;;;;;;;7.15;100.00;94432.34;5025110;28;20099;-56
2023/01/16 07:58:27;;;;;;;2.60;2.20;;;;;;;6.95;100.00;94424.16;5024880;28;20454;-50
2023/01/16 08:00:58;;;;;;;2.47;2.28;;;;;;;6.60;100.00;94418.41;5020726;28;20538;-49
2023/01/16 08:03:26;;;;;;;2.60;2.40;;;;;;;6.59;100.00;94413.34;5030558;28;20525;-51
2023/01/16 08:05:58;;;;;;;2.45;2.25;;;;;;;6.75;100.00;94410.66;5028787;28;20060;-48
2023/01/16 08:08:27;;;;;;;3.05;2.75;;;;;;;7.18;100.00;94397.13;5027090;28;20572;-51
2023/01/16 08:10:55;;;;;;;3.50;2.80;;;;;;;6.73;100.00;94388.25;5016500;28;20077;-51
2023/01/16 08:13:24;;;;;;;3.88;2.63;;;;;;;7.20;100.00;94387.31;5025847;28;20076;-53
2023/01/16 08:15:54;;;;;;;3.33;2.33;;;;;;;7.20;100.00;94382.88;5024681;28;20128;-49
2023/01/16 08:18:23;;;;;;;3.43;2.60;;;;;;;7.05;100.00;94376.75;5023448;28;20088;-49
2023/01/16 08:20:52;;;;;;;3.00;2.43;;;;;;;7.39;100.00;94373.69;5025363;28;20077;-45
2023/01/16 08:23:20;;;;;;;2.45;2.25;;;;;;;6.76;100.00;94372.19;5027627;28;20143;-51
2023/01/16 08:25:52;;;;;;;3.30;2.30;;;;;;;6.69;100.00;94366.81;5023157;28;20077;-53
2023/01/16 08:28:20;;;;;;;2.42;2.22;;;;;;;7.26;100.00;94362.97;5022701;28;20077;-48
2023/01/16 08:30:48;;;;;;;2.55;2.10;;;;;;;6.97;100.00;94368.94;5027983;28;20085;-47
2023/01/16 08:33:17;;;;;;;2.40;2.20;;;;;;;7.35;100.00;94349.66;5026400;28;20085;-51
2023/01/16 08:35:47;;;;;;;3.22;2.25;;;;;;;7.52;100.00;94342.44;5025041;28;20085;-49
2023/01/16 08:38:15;;;;;;;2.70;2.50;;;;;;;7.69;100.00;94331.81;5015471;28;20090;-49
2023/01/16 08:40:43;;;;;;;2.58;2.08;;;;;;;7.92;99.92;94316.00;5025833;28;20515;-50
2023/01/16 08:51:45;;;;;;;4.13;2.45;;;;;;;8.56;86.06;94289.94;5019485;28;20479;-49
2023/01/16 08:54:14;;;;;;;2.08;1.88;;;;;;;8.41;83.65;94289.19;5025175;28;20084;-48
2023/01/16 08:56:43;;;;;;;2.50;2.30;;;;;;;8.46;80.96;94274.47;5021884;28;20085;-51
2023/01/16 08:59:11;;;;;;;2.58;2.30;;;;;;;8.88;80.89;94270.28;5020505;28;20093;-48
2023/01/16 09:01:41;;;;;;;3.03;2.50;;;;;;;9.32;75.12;94258.69;5028728;28;20074;-47
2023/01/16 09:04:09;;;;;;;2.30;2.10;;;;;;;9.54;72.71;94253.41;5026489;28;20096;-49
2023/01/16 09:06:39;;;;;;;2.20;1.92;;;;;;;9.36;76.98;94251.25;5037609;28;20092;-48
2023/01/16 09:09:08;;;;;;;3.88;2.00;;;;;;;8.79;77.38;94250.38;5031673;28;20095;-53
2023/01/16 09:14:22;;;;;;;2.88;2.03;;;;;;;9.42;78.80;94221.53;5032094;28;20089;-52
2023/01/16 09:16:53;;;;;;;3.28;2.30;;;;;;;8.38;82.16;94222.09;5031396;28;20085;-50
2023/01/16 09:19:22;;;;;;;2.47;2.10;;;;;;;8.83;81.66;94214.03;5031920;28;20100;-50
2023/01/16 09:21:51;;;;;;;2.58;2.30;;;;;;;8.64;80.31;94208.41;5034813;28;20077;-51
2023/01/16 09:24:20;;;;;;;3.42;2.25;;;;;;;8.78;82.25;94201.47;5030170;28;20085;-46
2023/01/16 09:26:48;;;;;;;3.20;2.95;;;;;;;8.37;82.83;94201.25;5022323;28;20958;-52
2023/01/16 09:29:16;;;;;;;2.88;2.45;;;;;;;8.56;82.88;94190.13;5025132;28;20085;-52
2023/01/16 09:31:44;;;;;;;2.40;2.20;;;;;;;8.94;81.73;94187.22;5027145;28;20084;-53
2023/01/16 09:34:13;;;;;;;3.65;2.38;;;;;;;9.02;81.82;94179.22;5027972;28;20073;-55
2023/01/16 09:36:41;;;;;;;2.72;2.30;;;;;;;9.60;76.52;94166.63;5025477;28;20081;-53
2023/01/16 09:39:11;;;;;;;2.72;2.53;;;;;;;8.99;79.24;94166.44;5033381;28;20101;-46
2023/01/16 09:44:32;;;;;;;3.65;2.50;;;;;;;9.48;75.62;94150.56;5029886;28;20390;-46
2023/01/16 09:47:01;;;;;;;2.17;2.08;;;;;;;9.33;77.68;94149.88;5028398;28;20480;-53
2023/01/16 09:49:32;;;;;;;1.90;1.80;;;;;;;9.30;77.81;94147.66;5025953;28;20084;-46
2023/01/16 10:00:31;;;;;;;2.15;2.05;;;;;;;9.37;72.13;94101.16;5032046;28;20093;-53
2023/01/16 10:02:59;;;;;;;2.30;2.10;;;;;;;9.65;70.92;94095.00;5032704;28;20073;-49
2023/01/16 10:05:33;;;;;;;2.45;2.25;;;;;;;9.71;69.04;94083.69;5030270;28;20459;-50
2023/01/16 10:08:06;;;;;;;2.13;2.03;;;;;;;9.96;65.71;94082.13;5031840;28;20400;-50
2023/01/16 10:10:42;;;;;;;2.13;1.90;;;;;;;10.04;68.49;94067.16;5028200;28;20078;-51
2023/01/16 10:13:24;;;;;;;2.42;2.10;;;;;;;10.33;66.52;94055.47;5029997;28;20077;-47
2023/01/16 10:15:59;;;;;;;2.35;1.90;;;;;;;9.64;67.41;94053.91;5037054;28;20488;-51
2023/01/16 10:18:36;;;;;;;2.03;1.83;;;;;;;10.01;70.21;94044.66;5028577;28;20080;-53
2023/01/16 10:21:22;;;;;;;1.90;1.80;;;;;;;9.90;70.75;94032.09;5031005;28;20084;-49
2023/01/16 10:23:54;;;;;;;1.83;1.70;;;;;;;9.44;75.88;94030.16;5023335;28;20081;-49
2023/01/16 10:26:29;;;;;;;2.00;1.90;;;;;;;9.28;76.34;94016.34;5027976;28;20089;-54
2023/01/16 10:29:07;;;;;;;1.92;1.83;;;;;;;8.93;74.84;94007.69;5035232;28;20091;-51
2023/01/16 10:31:39;;;;;;;2.00;1.85;;;;;;;8.88;77.59;93996.97;5016427;28;20530;-53
2023/01/16 10:34:12;;;;;;;1.60;1.50;;;;;;;8.97;75.31;93995.78;5032838;28;20184;-55
2023/01/16 10:36:43;;;;;;;2.10;2.00;;;;;;;9.35;72.46;93984.00;5029720;28;20083;-49
2023/01/16 10:39:13;;;;;;;2.47;2.28;;;;;;;9.37;73.02;93974.09;5034748;28;20092;-47
2023/01/16 10:50:11;;;;;;;2.10;1.90;;;;;;;10.72;63.98;93938.66;5029082;28;20069;-51
2023/01/16 10:52:39;;;;;;;2.10;1.90;;;;;;;10.79;63.84;93930.75;5033953;28;20504;-47
2023/01/16 10:55:09;;;;;;;2.22;1.90;;;;;;;11.28;60.16;93924.84;5032908;28;20073;-52
2023/01/16 10:57:45;;;;;;;2.83;2.07;;;;;;;11.33;61.55;93908.41;5023504;28;20073;-50
2023/01/16 11:00:17;;;;;;;1.70;1.60;;;;;;;10.88;60.56;93903.16;5022793;28;20069;-53
2023/01/16 11:02:48;;;;;;;3.88;1.95;;;;;;;11.02;64.21;93888.88;5044348;28;20073;-48
2023/01/16 11:05:24;;;;;;;1.67;1.40;;;;;;;10.16;66.11;93889.94;5033425;28;20080;-49
2023/01/16 11:07:54;;;;;;;2.00;1.83;;;;;;;11.46;61.36;93881.94;5028947;28;20521;-51
2023/01/16 11:10:23;;;;;;;2.55;1.92;;;;;;;11.21;62.94;93876.59;5025227;28;20581;-54
2023/01/16 11:18:31;;;;;;;1.77;1.67;;;;;;;12.01;55.90;93860.19;5029358;28;20073;-50
2023/01/16 11:21:02;;;;;;;3.08;1.60;;;;;;;10.94;61.36;93865.38;5032080;28;20461;-50
2023/01/16 11:23:39;;;;;;;1.77;1.52;;;;;;;10.56;57.48;93857.44;5024516;28;20077;-46
2023/01/16 11:26:08;;;;;;;1.23;1.13;;;;;;;10.63;57.86;93851.16;5021444;28;20065;-56
2023/01/16 11:28:38;;;;;;;3.17;1.50;;;;;;;10.72;58.07;93840.34;5025274;28;20509;-48
2023/01/16 11:31:13;;;;;;;1.70;1.17;;;;;;;11.30;54.95;93834.97;5027356;28;20525;-49
2023/01/16 11:33:44;;;;;;;1.40;1.30;;;;;;;11.25;55.24;93832.97;5032192;28;20076;-58
2023/01/16 11:36:17;;;;;;;1.20;1.10;;;;;;;11.05;56.19;93830.44;5019430;28;20100;-49
2023/01/16 11:38:47;;;;;;;1.58;1.20;;;;;;;11.28;57.01;93821.97;5037266;28;20511;-56
2023/01/16 11:41:19;;;;;;;1.30;1.20;;;;;;;10.89;57.12;93804.56;5025780;28;20076;-52
2023/01/16 11:46:59;;;;;;;1.70;1.30;;;;;;;11.48;60.24;93786.72;5024224;28;20111;-56
2023/01/16 11:49:29;;;;;;;1.33;1.23;;;;;;;11.29;61.19;93776.13;5025254;28;20091;-51
2023/01/16 11:52:02;;;;;;;2.28;1.20;;;;;;;11.45;57.41;93768.69;5026353;28;20100;-51
2023/01/16 11:54:33;;;;;;;1.60;1.33;;;;;;;10.80;57.91;93758.41;5026486;28;20081;-54
2023/01/16 11:57:14;;;;;;;1.70;1.40;;;;;;;11.36;57.68;93757.59;5025016;28;20072;-55
2023/01/16 12:00:00;;;;;;;2.03;1.58;;;;;;;10.96;62.81;93743.91;5029915;28;20080;-49
2023/01/16 12:02:47;;;;;;;1.52;1.33;;;;;;;11.32;60.15;93730.84;5026461;28;20089;-50
2023/01/16 12:08:21;;;;;;;2.30;1.38;;;;;;;11.28;58.32;93699.81;5027641;28;20077;-51
2023/01/16 12:10:58;;;;;;;1.50;1.40;;;;;;;10.84;63.00;93683.97;5025670;28;20100;-48
2023/01/16 12:16:25;;;;;;;1.60;1.50;;;;;;;11.53;58.61;93668.16;5023605;28;20521;-54
2023/01/16 12:19:06;;;;;;;1.70;1.60;;;;;;;11.55;57.62;93672.16;5021909;28;20080;-57
2023/01/16 12:21:36;;;;;;;2.17;1.38;;;;;;;12.10;55.72;93677.44;5019777;28;20484;-50
2023/01/16 12:24:16;;;;;;;2.20;1.40;;;;;;;12.58;56.71;93675.81;5020211;28;20085;-47
2023/01/16 12:26:51;;;;;;;1.60;1.50;;;;;;;11.47;55.02;93675.09;5027273;28;20083;-55
2023/01/16 12:29:31;;;;;;;1.65;1.38;;;;;;;11.80;53.63;93681.84;5027035;28;20083;-53
2023/01/16 12:32:13;;;;;;;1.65;1.42;;;;;;;12.35;53.45;93676.53;5027088;28;20088;-53
2023/01/16 12:34:55;;;;;;;1.90;1.60;;;;;;;11.46;59.22;93684.03;5026866;28;20085;-48
2023/01/16 12:37:35;;;;;;;1.40;1.30;;;;;;;11.35;58.98;93685.53;5022165;28;20077;-52
2023/01/16 12:40:15;;;;;;;1.63;1.38;;;;;;;11.51;57.04;93680.75;5024806;28;20080;-50
2023/01/16 12:45:43;;;;;;;2.08;1.40;;;;;;;11.67;56.28;93674.91;5026320;28;20089;-48
2023/01/16 12:48:47;;;;;;;2.10;1.30;;;;;;;12.28;55.21;93667.88;5022867;28;20072;-48
2023/01/16 12:51:27;;;;;;;2.35;1.52;;;;;;;12.09;55.07;93667.91;5021647;28;20435;-52
2023/01/16 12:54:19;;;;;;;1.67;1.57;;;;;;;12.02;54.69;93667.19;5020919;28;20474;-52
2023/01/16 12:56:59;;;;;;;1.55;1.40;;;;;;;11.82;54.81;93656.84;5023140;28;20560;-55
2023/01/16 12:59:30;;;;;;;2.28;1.58;;;;;;;12.01;55.62;93649.75;5021233;28;20073;-53
2023/01/16 13:02:05;;;;;;;2.03;1.33;;;;;;;12.65;52.99;93641.34;5020396;28;20100;-52